sensor_id;sensor_type;location;lat;lon;timestamp;P1;durP1;ratioP1;P2;durP2;ratioP2
73938;SDS011;62291;47.554;8.504;2022-11-09T00:02:21;12.23;;;8.00;;
73938;SDS011;62291;47.554;8.504;2022-11-09T00:04:47;10.00;;;8.02;;
73938;SDS011;62291;47.554;8.504;2022-11-09T00:07:13;15.00;;;8.98;;
73938;SDS011;62291;47.554;8.504;2022-11-09T00:09:39;15.25;;;8.70;;
73938;SDS011;62291;47.554;8.504;2022-11-09T00:12:05;15.90;;;8.90;;
73938;SDS011;62291;47.554;8.504;2022-11-09T00:14:31;12.45;;;8.48;;
73938;SDS011;62291;47.554;8.504;2022-11-09T00:16:57;12.00;;;7.88;;
73938;SDS011;62291;47.554;8.504;2022-11-09T00:19:24;12.82;;;8.10;;
73938;SDS011;62291;47.554;8.504;2022-11-09T00:21:50;14.30;;;9.38;;
73938;SDS011;62291;47.554;8.504;2022-11-09T00:24:15;20.13;;;9.57;;
73938;SDS011;62291;47.554;8.504;2022-11-09T00:26:41;12.18;;;8.02;;
73938;SDS011;62291;47.554;8.504;2022-11-09T00:29:07;16.23;;;8.60;;
73938;SDS011;62291;47.554;8.504;2022-11-09T00:31:33;15.50;;;8.98;;
73938;SDS011;62291;47.554;8.504;2022-11-09T00:33:59;14.30;;;9.82;;
73938;SDS011;62291;47.554;8.504;2022-11-09T00:36:25;18.48;;;8.88;;
73938;SDS011;62291;47.554;8.504;2022-11-09T00:38:54;15.25;;;7.93;;
73938;SDS011;62291;47.554;8.504;2022-11-09T00:41:20;12.75;;;8.35;;
73938;SDS011;62291;47.554;8.504;2022-11-09T00:43:47;13.55;;;9.07;;
73938;SDS011;62291;47.554;8.504;2022-11-09T00:46:14;16.98;;;9.57;;
73938;SDS011;62291;47.554;8.504;2022-11-09T00:48:39;14.32;;;10.20;;
73938;SDS011;62291;47.554;8.504;2022-11-09T00:51:05;13.77;;;10.07;;
73938;SDS011;62291;47.554;8.504;2022-11-09T00:53:32;19.08;;;10.00;;
73938;SDS011;62291;47.554;8.504;2022-11-09T00:55:59;17.83;;;10.75;;
73938;SDS011;62291;47.554;8.504;2022-11-09T00:58:33;19.50;;;10.93;;
73938;SDS011;62291;47.554;8.504;2022-11-09T01:01:04;12.68;;;10.48;;
73938;SDS011;62291;47.554;8.504;2022-11-09T01:03:38;15.05;;;10.77;;
73938;SDS011;62291;47.554;8.504;2022-11-09T01:06:04;13.15;;;10.45;;
73938;SDS011;62291;47.554;8.504;2022-11-09T01:08:31;13.18;;;10.18;;
73938;SDS011;62291;47.554;8.504;2022-11-09T01:11:02;13.95;;;10.85;;
73938;SDS011;62291;47.554;8.504;2022-11-09T01:13:29;16.00;;;11.20;;
73938;SDS011;62291;47.554;8.504;2022-11-09T01:15:55;14.98;;;10.75;;
73938;SDS011;62291;47.554;8.504;2022-11-09T01:18:20;11.57;;;9.30;;
73938;SDS011;62291;47.554;8.504;2022-11-09T01:20:47;10.98;;;8.90;;
73938;SDS011;62291;47.554;8.504;2022-11-09T01:23:16;12.77;;;9.13;;
73938;SDS011;62291;47.554;8.504;2022-11-09T01:25:43;13.48;;;9.82;;
73938;SDS011;62291;47.554;8.504;2022-11-09T01:28:09;15.63;;;9.70;;
73938;SDS011;62291;47.554;8.504;2022-11-09T01:30:36;15.63;;;10.40;;
73938;SDS011;62291;47.554;8.504;2022-11-09T01:33:04;15.85;;;10.15;;
73938;SDS011;62291;47.554;8.504;2022-11-09T01:35:31;22.00;;;10.63;;
73938;SDS011;62291;47.554;8.504;2022-11-09T01:37:58;17.42;;;10.93;;
73938;SDS011;62291;47.554;8.504;2022-11-09T01:40:25;17.35;;;10.23;;
73938;SDS011;62291;47.554;8.504;2022-11-09T01:42:52;17.08;;;11.30;;
73938;SDS011;62291;47.554;8.504;2022-11-09T01:47:44;22.02;;;10.32;;
73938;SDS011;62291;47.554;8.504;2022-11-09T01:50:14;15.18;;;10.80;;
73938;SDS011;62291;47.554;8.504;2022-11-09T01:52:42;16.20;;;10.23;;
73938;SDS011;62291;47.554;8.504;2022-11-09T01:55:16;17.33;;;11.75;;
73938;SDS011;62291;47.554;8.504;2022-11-09T01:57:53;15.32;;;10.13;;
73938;SDS011;62291;47.554;8.504;2022-11-09T02:00:24;16.65;;;10.25;;
73938;SDS011;62291;47.554;8.504;2022-11-09T02:03:00;17.48;;;11.02;;
73938;SDS011;62291;47.554;8.504;2022-11-09T02:05:33;17.05;;;11.65;;
73938;SDS011;62291;47.554;8.504;2022-11-09T02:08:01;16.38;;;11.27;;
73938;SDS011;62291;47.554;8.504;2022-11-09T02:10:31;15.20;;;9.93;;
73938;SDS011;62291;47.554;8.504;2022-11-09T02:13:17;15.05;;;10.07;;
73938;SDS011;62291;47.554;8.504;2022-11-09T02:15:46;14.75;;;11.30;;
73938;SDS011;62291;47.554;8.504;2022-11-09T02:18:13;14.60;;;10.50;;
73938;SDS011;62291;47.554;8.504;2022-11-09T02:23:15;14.25;;;10.13;;
73938;SDS011;62291;47.554;8.504;2022-11-09T02:25:42;18.27;;;11.05;;
73938;SDS011;62291;47.554;8.504;2022-11-09T02:28:13;15.77;;;10.68;;
73938;SDS011;62291;47.554;8.504;2022-11-09T02:30:41;16.08;;;11.35;;
73938;SDS011;62291;47.554;8.504;2022-11-09T02:33:09;13.55;;;10.00;;
73938;SDS011;62291;47.554;8.504;2022-11-09T02:35:35;17.85;;;9.68;;
73938;SDS011;62291;47.554;8.504;2022-11-09T02:38:01;12.80;;;9.60;;
73938;SDS011;62291;47.554;8.504;2022-11-09T02:40:30;18.25;;;9.57;;
73938;SDS011;62291;47.554;8.504;2022-11-09T02:43:01;17.10;;;9.23;;
73938;SDS011;62291;47.554;8.504;2022-11-09T02:45:29;18.70;;;9.80;;
73938;SDS011;62291;47.554;8.504;2022-11-09T02:47:54;15.15;;;9.50;;
73938;SDS011;62291;47.554;8.504;2022-11-09T02:50:21;13.30;;;8.77;;
73938;SDS011;62291;47.554;8.504;2022-11-09T02:52:47;13.65;;;9.13;;
73938;SDS011;62291;47.554;8.504;2022-11-09T02:55:12;17.85;;;9.63;;
73938;SDS011;62291;47.554;8.504;2022-11-09T02:57:38;15.43;;;8.85;;
73938;SDS011;62291;47.554;8.504;2022-11-09T03:00:04;16.05;;;9.93;;
73938;SDS011;62291;47.554;8.504;2022-11-09T03:02:31;17.13;;;10.02;;
73938;SDS011;62291;47.554;8.504;2022-11-09T03:04:57;14.70;;;8.98;;
73938;SDS011;62291;47.554;8.504;2022-11-09T03:07:22;14.05;;;9.00;;
73938;SDS011;62291;47.554;8.504;2022-11-09T03:09:48;13.65;;;8.50;;
73938;SDS011;62291;47.554;8.504;2022-11-09T03:12:14;15.32;;;8.75;;
73938;SDS011;62291;47.554;8.504;2022-11-09T03:14:58;9.80;;;8.10;;
73938;SDS011;62291;47.554;8.504;2022-11-09T03:17:26;11.93;;;9.10;;
73938;SDS011;62291;47.554;8.504;2022-11-09T03:19:52;14.20;;;8.75;;
73938;SDS011;62291;47.554;8.504;2022-11-09T03:22:18;14.38;;;9.00;;
73938;SDS011;62291;47.554;8.504;2022-11-09T03:24:44;13.73;;;8.75;;
73938;SDS011;62291;47.554;8.504;2022-11-09T03:27:10;11.25;;;9.00;;
73938;SDS011;62291;47.554;8.504;2022-11-09T03:29:36;11.85;;;8.38;;
73938;SDS011;62291;47.554;8.504;2022-11-09T03:32:02;13.50;;;8.95;;
73938;SDS011;62291;47.554;8.504;2022-11-09T03:34:28;15.07;;;8.90;;
73938;SDS011;62291;47.554;8.504;2022-11-09T03:36:53;16.33;;;8.93;;
73938;SDS011;62291;47.554;8.504;2022-11-09T03:39:19;14.48;;;8.55;;
73938;SDS011;62291;47.554;8.504;2022-11-09T03:41:45;11.98;;;7.75;;
73938;SDS011;62291;47.554;8.504;2022-11-09T03:44:10;14.88;;;8.40;;
73938;SDS011;62291;47.554;8.504;2022-11-09T03:46:36;14.82;;;9.10;;
73938;SDS011;62291;47.554;8.504;2022-11-09T03:49:02;16.88;;;9.48;;
73938;SDS011;62291;47.554;8.504;2022-11-09T03:51:27;15.95;;;9.50;;
73938;SDS011;62291;47.554;8.504;2022-11-09T03:53:53;12.80;;;9.03;;
73938;SDS011;62291;47.554;8.504;2022-11-09T03:56:19;17.00;;;9.95;;
73938;SDS011;62291;47.554;8.504;2022-11-09T03:58:44;12.68;;;9.57;;
73938;SDS011;62291;47.554;8.504;2022-11-09T04:01:10;18.33;;;10.68;;
73938;SDS011;62291;47.554;8.504;2022-11-09T04:03:36;19.17;;;9.95;;
73938;SDS011;62291;47.554;8.504;2022-11-09T04:06:02;13.75;;;9.75;;
73938;SDS011;62291;47.554;8.504;2022-11-09T04:08:27;14.50;;;9.95;;
73938;SDS011;62291;47.554;8.504;2022-11-09T04:10:54;14.30;;;9.43;;
73938;SDS011;62291;47.554;8.504;2022-11-09T04:13:19;16.98;;;10.65;;
73938;SDS011;62291;47.554;8.504;2022-11-09T04:15:45;15.05;;;9.98;;
73938;SDS011;62291;47.554;8.504;2022-11-09T04:18:12;16.17;;;10.10;;
73938;SDS011;62291;47.554;8.504;2022-11-09T04:20:39;15.98;;;9.77;;
73938;SDS011;62291;47.554;8.504;2022-11-09T04:23:05;13.05;;;9.30;;
73938;SDS011;62291;47.554;8.504;2022-11-09T04:25:34;14.10;;;9.60;;
73938;SDS011;62291;47.554;8.504;2022-11-09T04:28:01;14.00;;;9.63;;
73938;SDS011;62291;47.554;8.504;2022-11-09T04:30:28;17.40;;;10.65;;
73938;SDS011;62291;47.554;8.504;2022-11-09T04:32:56;16.42;;;11.30;;
73938;SDS011;62291;47.554;8.504;2022-11-09T04:35:23;14.15;;;9.52;;
73938;SDS011;62291;47.554;8.504;2022-11-09T04:37:53;16.95;;;10.77;;
73938;SDS011;62291;47.554;8.504;2022-11-09T04:40:24;17.98;;;11.48;;
73938;SDS011;62291;47.554;8.504;2022-11-09T04:42:51;17.75;;;11.35;;
73938;SDS011;62291;47.554;8.504;2022-11-09T04:45:17;17.17;;;11.30;;
73938;SDS011;62291;47.554;8.504;2022-11-09T04:47:43;14.60;;;11.05;;
73938;SDS011;62291;47.554;8.504;2022-11-09T04:50:09;16.40;;;11.38;;
73938;SDS011;62291;47.554;8.504;2022-11-09T04:52:35;15.77;;;11.80;;
73938;SDS011;62291;47.554;8.504;2022-11-09T04:55:01;17.27;;;12.15;;
73938;SDS011;62291;47.554;8.504;2022-11-09T04:57:27;19.08;;;12.25;;
73938;SDS011;62291;47.554;8.504;2022-11-09T04:59:52;17.40;;;10.98;;
73938;SDS011;62291;47.554;8.504;2022-11-09T05:02:18;15.20;;;10.80;;
73938;SDS011;62291;47.554;8.504;2022-11-09T05:04:44;16.88;;;11.82;;
73938;SDS011;62291;47.554;8.504;2022-11-09T05:07:09;17.70;;;12.77;;
73938;SDS011;62291;47.554;8.504;2022-11-09T05:09:35;17.40;;;13.48;;
73938;SDS011;62291;47.554;8.504;2022-11-09T05:12:01;19.05;;;12.43;;
73938;SDS011;62291;47.554;8.504;2022-11-09T05:14:26;21.65;;;12.32;;
73938;SDS011;62291;47.554;8.504;2022-11-09T05:16:52;20.55;;;11.32;;
73938;SDS011;62291;47.554;8.504;2022-11-09T05:19:18;19.20;;;10.90;;
73938;SDS011;62291;47.554;8.504;2022-11-09T05:21:44;17.27;;;11.68;;
73938;SDS011;62291;47.554;8.504;2022-11-09T05:24:09;17.77;;;11.75;;
73938;SDS011;62291;47.554;8.504;2022-11-09T05:26:36;26.73;;;12.93;;
73938;SDS011;62291;47.554;8.504;2022-11-09T05:29:04;17.98;;;11.98;;
73938;SDS011;62291;47.554;8.504;2022-11-09T05:31:32;17.30;;;11.98;;
73938;SDS011;62291;47.554;8.504;2022-11-09T05:33:58;22.13;;;12.40;;
73938;SDS011;62291;47.554;8.504;2022-11-09T05:36:24;20.83;;;14.63;;
73938;SDS011;62291;47.554;8.504;2022-11-09T05:38:52;24.13;;;16.02;;
73938;SDS011;62291;47.554;8.504;2022-11-09T05:41:18;18.92;;;14.65;;
73938;SDS011;62291;47.554;8.504;2022-11-09T05:43:44;18.20;;;13.10;;
73938;SDS011;62291;47.554;8.504;2022-11-09T05:46:10;18.13;;;12.82;;
73938;SDS011;62291;47.554;8.504;2022-11-09T05:48:37;17.08;;;12.50;;
73938;SDS011;62291;47.554;8.504;2022-11-09T05:51:04;17.92;;;12.30;;
73938;SDS011;62291;47.554;8.504;2022-11-09T05:53:31;26.48;;;12.07;;
73938;SDS011;62291;47.554;8.504;2022-11-09T05:56:04;16.08;;;12.07;;
73938;SDS011;62291;47.554;8.504;2022-11-09T05:58:31;17.23;;;12.48;;
73938;SDS011;62291;47.554;8.504;2022-11-09T06:01:01;18.48;;;12.07;;
73938;SDS011;62291;47.554;8.504;2022-11-09T06:03:31;15.83;;;12.27;;
73938;SDS011;62291;47.554;8.504;2022-11-09T06:06:01;16.95;;;12.23;;
73938;SDS011;62291;47.554;8.504;2022-11-09T06:08:27;17.27;;;11.60;;
73938;SDS011;62291;47.554;8.504;2022-11-09T06:10:57;17.23;;;11.38;;
73938;SDS011;62291;47.554;8.504;2022-11-09T06:13:24;17.77;;;12.00;;
73938;SDS011;62291;47.554;8.504;2022-11-09T06:15:53;17.65;;;11.52;;
73938;SDS011;62291;47.554;8.504;2022-11-09T06:18:21;18.10;;;12.00;;
73938;SDS011;62291;47.554;8.504;2022-11-09T06:20:49;15.13;;;10.93;;
73938;SDS011;62291;47.554;8.504;2022-11-09T06:23:19;18.45;;;12.25;;
73938;SDS011;62291;47.554;8.504;2022-11-09T06:25:50;16.63;;;11.90;;
73938;SDS011;62291;47.554;8.504;2022-11-09T06:28:17;16.15;;;11.32;;
73938;SDS011;62291;47.554;8.504;2022-11-09T06:30:42;18.25;;;12.27;;
73938;SDS011;62291;47.554;8.504;2022-11-09T06:33:08;18.50;;;11.73;;
73938;SDS011;62291;47.554;8.504;2022-11-09T06:35:34;15.18;;;11.82;;
73938;SDS011;62291;47.554;8.504;2022-11-09T06:38:00;15.75;;;12.00;;
73938;SDS011;62291;47.554;8.504;2022-11-09T06:40:26;15.80;;;10.93;;
73938;SDS011;62291;47.554;8.504;2022-11-09T06:42:54;15.07;;;10.30;;
73938;SDS011;62291;47.554;8.504;2022-11-09T06:45:22;16.40;;;11.02;;
73938;SDS011;62291;47.554;8.504;2022-11-09T06:47:47;15.52;;;11.52;;
73938;SDS011;62291;47.554;8.504;2022-11-09T06:50:13;14.48;;;9.98;;
73938;SDS011;62291;47.554;8.504;2022-11-09T06:52:39;17.13;;;10.55;;
73938;SDS011;62291;47.554;8.504;2022-11-09T06:55:05;16.52;;;12.23;;
73938;SDS011;62291;47.554;8.504;2022-11-09T06:57:32;19.73;;;14.00;;
73938;SDS011;62291;47.554;8.504;2022-11-09T06:59:58;22.38;;;12.68;;
73938;SDS011;62291;47.554;8.504;2022-11-09T07:02:24;18.83;;;12.30;;
73938;SDS011;62291;47.554;8.504;2022-11-09T07:04:50;17.33;;;13.35;;
73938;SDS011;62291;47.554;8.504;2022-11-09T07:07:16;21.48;;;15.00;;
73938;SDS011;62291;47.554;8.504;2022-11-09T07:09:42;23.20;;;15.70;;
73938;SDS011;62291;47.554;8.504;2022-11-09T07:12:08;18.58;;;13.27;;
73938;SDS011;62291;47.554;8.504;2022-11-09T07:14:34;17.52;;;12.90;;
73938;SDS011;62291;47.554;8.504;2022-11-09T07:17:00;15.30;;;12.13;;
73938;SDS011;62291;47.554;8.504;2022-11-09T07:19:27;18.63;;;12.77;;
73938;SDS011;62291;47.554;8.504;2022-11-09T07:21:53;18.73;;;12.50;;
73938;SDS011;62291;47.554;8.504;2022-11-09T07:24:20;21.23;;;13.27;;
73938;SDS011;62291;47.554;8.504;2022-11-09T07:26:46;19.58;;;12.93;;
73938;SDS011;62291;47.554;8.504;2022-11-09T07:29:12;19.35;;;13.35;;
73938;SDS011;62291;47.554;8.504;2022-11-09T07:31:38;20.85;;;15.88;;
73938;SDS011;62291;47.554;8.504;2022-11-09T07:34:04;20.52;;;15.32;;
73938;SDS011;62291;47.554;8.504;2022-11-09T07:36:30;17.92;;;14.30;;
73938;SDS011;62291;47.554;8.504;2022-11-09T07:38:56;21.20;;;15.55;;
73938;SDS011;62291;47.554;8.504;2022-11-09T07:41:22;18.35;;;13.82;;
73938;SDS011;62291;47.554;8.504;2022-11-09T07:43:48;20.08;;;13.88;;
73938;SDS011;62291;47.554;8.504;2022-11-09T07:46:14;21.13;;;14.10;;
73938;SDS011;62291;47.554;8.504;2022-11-09T07:48:40;20.08;;;14.05;;
73938;SDS011;62291;47.554;8.504;2022-11-09T07:51:07;17.88;;;13.90;;
73938;SDS011;62291;47.554;8.504;2022-11-09T07:53:32;21.25;;;14.98;;
73938;SDS011;62291;47.554;8.504;2022-11-09T07:55:59;26.48;;;19.48;;
73938;SDS011;62291;47.554;8.504;2022-11-09T07:58:26;24.48;;;18.73;;
73938;SDS011;62291;47.554;8.504;2022-11-09T08:00:52;22.23;;;17.02;;
73938;SDS011;62291;47.554;8.504;2022-11-09T08:03:18;20.83;;;14.80;;
73938;SDS011;62291;47.554;8.504;2022-11-09T08:05:46;21.80;;;14.20;;
73938;SDS011;62291;47.554;8.504;2022-11-09T08:08:13;22.50;;;14.75;;
73938;SDS011;62291;47.554;8.504;2022-11-09T08:10:40;18.08;;;12.25;;
73938;SDS011;62291;47.554;8.504;2022-11-09T08:13:09;17.05;;;12.77;;
73938;SDS011;62291;47.554;8.504;2022-11-09T08:15:37;20.95;;;13.98;;
73938;SDS011;62291;47.554;8.504;2022-11-09T08:18:05;23.00;;;14.38;;
73938;SDS011;62291;47.554;8.504;2022-11-09T08:20:32;17.25;;;12.30;;
73938;SDS011;62291;47.554;8.504;2022-11-09T08:22:59;19.85;;;14.02;;
73938;SDS011;62291;47.554;8.504;2022-11-09T08:25:24;21.15;;;14.30;;
73938;SDS011;62291;47.554;8.504;2022-11-09T08:27:50;24.08;;;16.42;;
73938;SDS011;62291;47.554;8.504;2022-11-09T08:30:17;24.58;;;16.95;;
73938;SDS011;62291;47.554;8.504;2022-11-09T08:32:44;35.28;;;20.92;;
73938;SDS011;62291;47.554;8.504;2022-11-09T08:35:12;30.40;;;18.60;;
73938;SDS011;62291;47.554;8.504;2022-11-09T08:37:45;18.65;;;14.05;;
73938;SDS011;62291;47.554;8.504;2022-11-09T08:40:13;18.92;;;13.63;;
73938;SDS011;62291;47.554;8.504;2022-11-09T08:42:41;14.85;;;12.35;;
73938;SDS011;62291;47.554;8.504;2022-11-09T08:45:07;18.40;;;12.50;;
73938;SDS011;62291;47.554;8.504;2022-11-09T08:47:33;20.38;;;13.23;;
73938;SDS011;62291;47.554;8.504;2022-11-09T08:49:59;17.35;;;12.93;;
73938;SDS011;62291;47.554;8.504;2022-11-09T08:52:26;20.17;;;13.25;;
73938;SDS011;62291;47.554;8.504;2022-11-09T08:54:51;19.23;;;14.90;;
73938;SDS011;62291;47.554;8.504;2022-11-09T08:57:17;18.83;;;14.43;;
73938;SDS011;62291;47.554;8.504;2022-11-09T08:59:44;22.65;;;15.10;;
73938;SDS011;62291;47.554;8.504;2022-11-09T09:02:10;24.27;;;15.43;;
73938;SDS011;62291;47.554;8.504;2022-11-09T09:04:37;18.63;;;12.90;;
73938;SDS011;62291;47.554;8.504;2022-11-09T09:07:03;16.60;;;11.93;;
73938;SDS011;62291;47.554;8.504;2022-11-09T09:09:29;16.00;;;11.50;;
73938;SDS011;62291;47.554;8.504;2022-11-09T09:11:55;17.27;;;11.32;;
73938;SDS011;62291;47.554;8.504;2022-11-09T09:14:20;15.13;;;11.35;;
73938;SDS011;62291;47.554;8.504;2022-11-09T09:16:46;19.05;;;12.02;;
73938;SDS011;62291;47.554;8.504;2022-11-09T09:19:12;18.45;;;12.82;;
73938;SDS011;62291;47.554;8.504;2022-11-09T09:21:38;18.00;;;12.13;;
73938;SDS011;62291;47.554;8.504;2022-11-09T09:24:04;17.23;;;12.15;;
73938;SDS011;62291;47.554;8.504;2022-11-09T09:26:30;15.13;;;10.68;;
73938;SDS011;62291;47.554;8.504;2022-11-09T09:28:55;11.43;;;9.68;;
73938;SDS011;62291;47.554;8.504;2022-11-09T09:31:21;12.63;;;9.98;;
73938;SDS011;62291;47.554;8.504;2022-11-09T09:33:47;12.65;;;10.23;;
73938;SDS011;62291;47.554;8.504;2022-11-09T09:36:16;11.82;;;10.63;;
73938;SDS011;62291;47.554;8.504;2022-11-09T09:38:43;13.05;;;11.60;;
73938;SDS011;62291;47.554;8.504;2022-11-09T09:41:16;16.27;;;12.75;;
73938;SDS011;62291;47.554;8.504;2022-11-09T09:43:54;15.98;;;12.88;;
73938;SDS011;62291;47.554;8.504;2022-11-09T09:46:25;15.77;;;12.32;;
73938;SDS011;62291;47.554;8.504;2022-11-09T09:49:06;16.42;;;13.25;;
73938;SDS011;62291;47.554;8.504;2022-11-09T09:51:44;18.50;;;14.15;;
73938;SDS011;62291;47.554;8.504;2022-11-09T09:54:24;19.17;;;14.52;;
73938;SDS011;62291;47.554;8.504;2022-11-09T09:56:54;17.02;;;13.57;;
73938;SDS011;62291;47.554;8.504;2022-11-09T10:01:57;15.77;;;11.95;;
73938;SDS011;62291;47.554;8.504;2022-11-09T10:04:25;15.75;;;11.93;;
73938;SDS011;62291;47.554;8.504;2022-11-09T10:09:38;16.02;;;12.15;;
73938;SDS011;62291;47.554;8.504;2022-11-09T10:12:33;14.05;;;11.85;;
73938;SDS011;62291;47.554;8.504;2022-11-09T10:23:33;13.90;;;10.25;;
73938;SDS011;62291;47.554;8.504;2022-11-09T10:31:49;16.63;;;11.65;;
73938;SDS011;62291;47.554;8.504;2022-11-09T10:40:04;17.20;;;12.30;;
73938;SDS011;62291;47.554;8.504;2022-11-09T10:42:36;16.33;;;14.00;;
73938;SDS011;62291;47.554;8.504;2022-11-09T10:45:10;17.85;;;13.95;;
73938;SDS011;62291;47.554;8.504;2022-11-09T10:47:46;20.63;;;17.15;;
73938;SDS011;62291;47.554;8.504;2022-11-09T10:52:48;28.05;;;20.13;;
73938;SDS011;62291;47.554;8.504;2022-11-09T10:55:27;19.85;;;16.67;;
73938;SDS011;62291;47.554;8.504;2022-11-09T11:00:23;18.63;;;14.60;;
73938;SDS011;62291;47.554;8.504;2022-11-09T11:02:49;19.13;;;14.55;;
73938;SDS011;62291;47.554;8.504;2022-11-09T11:07:43;17.23;;;13.73;;
73938;SDS011;62291;47.554;8.504;2022-11-09T11:12:50;20.92;;;17.60;;
73938;SDS011;62291;47.554;8.504;2022-11-09T11:15:33;16.73;;;13.73;;
73938;SDS011;62291;47.554;8.504;2022-11-09T11:18:03;16.92;;;14.43;;
73938;SDS011;62291;47.554;8.504;2022-11-09T11:20:37;13.40;;;11.63;;
73938;SDS011;62291;47.554;8.504;2022-11-09T11:23:24;15.00;;;11.38;;
73938;SDS011;62291;47.554;8.504;2022-11-09T11:28:24;15.50;;;12.45;;
73938;SDS011;62291;47.554;8.504;2022-11-09T11:31:10;15.18;;;12.65;;
73938;SDS011;62291;47.554;8.504;2022-11-09T11:33:37;12.68;;;10.30;;
73938;SDS011;62291;47.554;8.504;2022-11-09T11:36:07;14.90;;;10.93;;
73938;SDS011;62291;47.554;8.504;2022-11-09T11:38:50;11.25;;;8.98;;
73938;SDS011;62291;47.554;8.504;2022-11-09T11:44:29;10.82;;;8.68;;
73938;SDS011;62291;47.554;8.504;2022-11-09T11:47:08;10.02;;;8.57;;
73938;SDS011;62291;47.554;8.504;2022-11-09T11:55:15;9.32;;;8.32;;
73938;SDS011;62291;47.554;8.504;2022-11-09T12:00:44;10.93;;;8.73;;
73938;SDS011;62291;47.554;8.504;2022-11-09T12:09:32;9.98;;;7.97;;
73938;SDS011;62291;47.554;8.504;2022-11-09T12:14:58;13.52;;;8.63;;
73938;SDS011;62291;47.554;8.504;2022-11-09T12:17:31;10.02;;;8.30;;
73938;SDS011;62291;47.554;8.504;2022-11-09T12:23:17;10.35;;;7.68;;
73938;SDS011;62291;47.554;8.504;2022-11-09T12:31:45;11.10;;;7.93;;
73938;SDS011;62291;47.554;8.504;2022-11-09T12:36:54;8.65;;;7.40;;
73938;SDS011;62291;47.554;8.504;2022-11-09T12:39:35;8.85;;;7.45;;
73938;SDS011;62291;47.554;8.504;2022-11-09T12:45:36;10.98;;;7.70;;
73938;SDS011;62291;47.554;8.504;2022-11-09T12:48:19;12.00;;;8.33;;
73938;SDS011;62291;47.554;8.504;2022-11-09T12:50:48;10.63;;;9.07;;
73938;SDS011;62291;47.554;8.504;2022-11-09T12:53:15;10.45;;;8.48;;
73938;SDS011;62291;47.554;8.504;2022-11-09T12:55:46;9.43;;;8.05;;
73938;SDS011;62291;47.554;8.504;2022-11-09T12:58:24;9.82;;;8.43;;
73938;SDS011;62291;47.554;8.504;2022-11-09T13:00:56;9.80;;;7.80;;
73938;SDS011;62291;47.554;8.504;2022-11-09T13:03:37;10.75;;;7.90;;
73938;SDS011;62291;47.554;8.504;2022-11-09T13:08:34;9.52;;;7.18;;
73938;SDS011;62291;47.554;8.504;2022-11-09T13:11:08;8.45;;;7.50;;
73938;SDS011;62291;47.554;8.504;2022-11-09T13:13:43;9.52;;;7.20;;
73938;SDS011;62291;47.554;8.504;2022-11-09T13:18:45;12.85;;;7.72;;
73938;SDS011;62291;47.554;8.504;2022-11-09T13:23:50;9.13;;;6.90;;
73938;SDS011;62291;47.554;8.504;2022-11-09T13:26:51;7.47;;;6.47;;
73938;SDS011;62291;47.554;8.504;2022-11-09T13:34:38;12.60;;;7.82;;
73938;SDS011;62291;47.554;8.504;2022-11-09T13:42:55;8.75;;;6.80;;
73938;SDS011;62291;47.554;8.504;2022-11-09T13:50:25;10.02;;;6.95;;
73938;SDS011;62291;47.554;8.504;2022-11-09T13:52:52;9.90;;;7.55;;
73938;SDS011;62291;47.554;8.504;2022-11-09T13:55:34;11.05;;;7.57;;
73938;SDS011;62291;47.554;8.504;2022-11-09T13:58:04;7.18;;;6.45;;
73938;SDS011;62291;47.554;8.504;2022-11-09T14:00:43;8.52;;;6.68;;
73938;SDS011;62291;47.554;8.504;2022-11-09T14:03:18;9.52;;;7.93;;
73938;SDS011;62291;47.554;8.504;2022-11-09T14:05:44;10.70;;;6.70;;
73938;SDS011;62291;47.554;8.504;2022-11-09T14:08:15;9.63;;;7.60;;
73938;SDS011;62291;47.554;8.504;2022-11-09T14:10:54;8.65;;;7.25;;
73938;SDS011;62291;47.554;8.504;2022-11-09T14:24:16;10.00;;;7.65;;
73938;SDS011;62291;47.554;8.504;2022-11-09T14:29:35;10.88;;;7.13;;
73938;SDS011;62291;47.554;8.504;2022-11-09T14:32:23;13.60;;;7.75;;
73938;SDS011;62291;47.554;8.504;2022-11-09T14:34:47;11.65;;;7.45;;
73938;SDS011;62291;47.554;8.504;2022-11-09T14:37:13;10.30;;;6.68;;
73938;SDS011;62291;47.554;8.504;2022-11-09T14:39:40;12.98;;;7.70;;
73938;SDS011;62291;47.554;8.504;2022-11-09T14:42:06;8.60;;;6.72;;
73938;SDS011;62291;47.554;8.504;2022-11-09T14:44:32;9.27;;;6.90;;
73938;SDS011;62291;47.554;8.504;2022-11-09T14:47:05;9.32;;;6.63;;
73938;SDS011;62291;47.554;8.504;2022-11-09T14:49:38;11.75;;;7.00;;
73938;SDS011;62291;47.554;8.504;2022-11-09T14:52:05;10.25;;;6.85;;
73938;SDS011;62291;47.554;8.504;2022-11-09T14:54:31;9.77;;;7.03;;
73938;SDS011;62291;47.554;8.504;2022-11-09T14:56:57;10.82;;;6.78;;
73938;SDS011;62291;47.554;8.504;2022-11-09T14:59:30;13.30;;;7.53;;
73938;SDS011;62291;47.554;8.504;2022-11-09T15:04:55;12.80;;;7.72;;
73938;SDS011;62291;47.554;8.504;2022-11-09T15:07:29;11.50;;;6.90;;
73938;SDS011;62291;47.554;8.504;2022-11-09T15:09:59;15.68;;;7.22;;
73938;SDS011;62291;47.554;8.504;2022-11-09T15:12:32;9.02;;;5.93;;
73938;SDS011;62291;47.554;8.504;2022-11-09T15:15:02;10.20;;;5.75;;
73938;SDS011;62291;47.554;8.504;2022-11-09T15:22:52;12.98;;;5.55;;
73938;SDS011;62291;47.554;8.504;2022-11-09T15:30:37;8.90;;;6.35;;
73938;SDS011;62291;47.554;8.504;2022-11-09T15:35:49;12.05;;;7.03;;
73938;SDS011;62291;47.554;8.504;2022-11-09T15:38:30;12.50;;;7.00;;
73938;SDS011;62291;47.554;8.504;2022-11-09T15:41:04;13.38;;;6.88;;
73938;SDS011;62291;47.554;8.504;2022-11-09T15:43:38;11.63;;;7.05;;
73938;SDS011;62291;47.554;8.504;2022-11-09T15:46:03;12.40;;;7.65;;
73938;SDS011;62291;47.554;8.504;2022-11-09T15:48:29;12.75;;;8.10;;
73938;SDS011;62291;47.554;8.504;2022-11-09T15:50:55;9.75;;;7.90;;
73938;SDS011;62291;47.554;8.504;2022-11-09T15:53:22;12.48;;;8.63;;
73938;SDS011;62291;47.554;8.504;2022-11-09T15:55:48;10.98;;;7.50;;
73938;SDS011;62291;47.554;8.504;2022-11-09T15:58:15;11.98;;;7.47;;
73938;SDS011;62291;47.554;8.504;2022-11-09T16:00:42;11.52;;;7.45;;
73938;SDS011;62291;47.554;8.504;2022-11-09T16:03:09;12.52;;;7.70;;
73938;SDS011;62291;47.554;8.504;2022-11-09T16:05:35;10.48;;;7.47;;
73938;SDS011;62291;47.554;8.504;2022-11-09T16:08:01;13.68;;;8.02;;
73938;SDS011;62291;47.554;8.504;2022-11-09T16:10:28;11.23;;;7.85;;
73938;SDS011;62291;47.554;8.504;2022-11-09T16:12:55;11.85;;;8.50;;
73938;SDS011;62291;47.554;8.504;2022-11-09T16:15:22;10.80;;;7.15;;
73938;SDS011;62291;47.554;8.504;2022-11-09T16:17:48;11.27;;;7.07;;
73938;SDS011;62291;47.554;8.504;2022-11-09T16:20:15;9.07;;;6.90;;
73938;SDS011;62291;47.554;8.504;2022-11-09T16:22:42;10.50;;;8.02;;
73938;SDS011;62291;47.554;8.504;2022-11-09T16:25:08;11.98;;;7.13;;
73938;SDS011;62291;47.554;8.504;2022-11-09T16:27:34;9.93;;;7.00;;
73938;SDS011;62291;47.554;8.504;2022-11-09T16:30:00;8.88;;;6.70;;
73938;SDS011;62291;47.554;8.504;2022-11-09T16:32:26;11.45;;;7.53;;
73938;SDS011;62291;47.554;8.504;2022-11-09T16:34:52;8.93;;;7.97;;
73938;SDS011;62291;47.554;8.504;2022-11-09T16:37:18;10.45;;;7.20;;
73938;SDS011;62291;47.554;8.504;2022-11-09T16:39:45;10.20;;;8.02;;
73938;SDS011;62291;47.554;8.504;2022-11-09T16:42:11;14.25;;;8.63;;
73938;SDS011;62291;47.554;8.504;2022-11-09T16:44:40;12.93;;;8.65;;
73938;SDS011;62291;47.554;8.504;2022-11-09T16:47:09;11.93;;;8.75;;
73938;SDS011;62291;47.554;8.504;2022-11-09T16:49:38;10.93;;;8.68;;